首页
METAR-TAF:

METAR-TAF

机场 :

Creech_Air_Force_Base

Indian Springs, 内华达州, 美国

纬度: 36-32N, 经度: 115-54W, 海拔: 952米

当前天气观测

该预报发布于52分钟前的17:58 UTC
风速7节,风向
温度 37°C
湿度 8%
气压 1017 hPa
能見度: 16.1公里
少量云层高于20000英尺

METAR: KINS 221758Z AUTO 09007KT 10SM FEW200 37/M03 A3004 RMK AO2 SLP114 T03651031 10365 20218 51005 $

时间: 11:50 (18:50 UTC)

预报

该预报发布于5小时和55分钟前的12:55 UTC
预报有效从22日的 13点(UTC)到 23日的 19点(UTC)
风速6节,风向多变
能见度10公里或以上
少量云层高于18000英尺
成为
从 22日的 17点(UTC)到 22日的 18点(UTC)
风速9节,风向东转东南
能见度10公里或以上
少量云层高于18000英尺
短暂存在
从 22日的 20点(UTC)到 23日的 01点(UTC)
风速12节,风向东南,有时为18节阵风
成为
从 23日的 02点(UTC)到 23日的 03点(UTC)
风速6节,风向多变
能见度10公里或以上
少量云层高于18000英尺

TAF: KINS 221255Z 2213/2319 VRB06KT 9999 FEW180 QNH2993INS BECMG 2217/2218 12009KT 9999 FEW180 QNH2995INS TEMPO 2220/2301 13012G18KT BECMG 2302/2303 VRB06KT 9999 FEW180 QNH2996INS TX41/2222Z TN24/2213Z

超过4000个机场的气象观测和天气预报(METAR&TAF报告)。

可查询的气象台以黄色和红色小点在地图上表示。

将鼠标移到小点上方,可查看气象台名称。

然后点击查看天气观测和预报。

如需切换地图:点击带黑十字的绿色按钮放大地图;点击带横线的绿色按钮缩小地图;或者点击绿色箭头查看邻近地区的地图。


METAR-TAF: